createdAt,value
2022-12-19T00:01:36.983Z,18.67
2022-12-19T00:04:08.104Z,19.63
2022-12-19T00:06:35.838Z,20.10
2022-12-19T00:09:02.513Z,16.17
2022-12-19T00:11:30.219Z,18.42
2022-12-19T00:13:57.280Z,17.08
2022-12-19T00:16:26.475Z,16.27
2022-12-19T00:18:55.706Z,16.23
2022-12-19T00:21:24.248Z,19.05
2022-12-19T00:23:51.167Z,17.52
2022-12-19T00:26:17.632Z,17.27
2022-12-19T00:28:46.607Z,18.17
2022-12-19T00:31:14.592Z,14.48
2022-12-19T00:33:43.685Z,18.67
2022-12-19T00:36:12.555Z,17.85
2022-12-19T00:38:39.167Z,17.02
2022-12-19T00:41:10.931Z,17.83
2022-12-19T00:43:38.662Z,17.38
2022-12-19T00:46:08.829Z,18.00
2022-12-19T00:48:35.691Z,18.05
2022-12-19T00:51:16.955Z,18.75
2022-12-19T00:53:45.304Z,19.07
2022-12-19T00:56:14.750Z,15.73
2022-12-19T00:58:46.588Z,18.48
2022-12-19T01:01:28.415Z,18.20
2022-12-19T01:06:41.465Z,14.93
2022-12-19T01:09:09.557Z,17.77
2022-12-19T01:11:54.462Z,19.98
2022-12-19T01:14:23.037Z,18.25
2022-12-19T01:16:50.564Z,18.90
2022-12-19T01:19:17.333Z,17.67
2022-12-19T01:21:43.795Z,18.70
2022-12-19T01:24:10.701Z,17.35
2022-12-19T01:26:37.472Z,18.85
2022-12-19T01:29:04.723Z,17.67
2022-12-19T01:31:31.231Z,18.80
2022-12-19T01:34:00.030Z,19.80
2022-12-19T01:36:28.133Z,19.08
2022-12-19T01:38:58.243Z,19.58
2022-12-19T01:41:24.876Z,18.08
2022-12-19T01:43:58.666Z,18.00
2022-12-19T01:46:29.949Z,19.40
2022-12-19T01:48:57.066Z,18.80
2022-12-19T01:51:29.348Z,17.88
2022-12-19T01:54:01.948Z,18.48
2022-12-19T01:56:33.122Z,17.77
2022-12-19T01:59:05.764Z,17.75
2022-12-19T02:01:34.644Z,20.58
2022-12-19T02:04:02.725Z,17.98
2022-12-19T02:06:31.286Z,18.95
2022-12-19T02:08:58.167Z,18.23
2022-12-19T02:11:24.569Z,18.52
2022-12-19T02:13:52.534Z,18.95
2022-12-19T02:16:21.614Z,20.17
2022-12-19T02:18:51.736Z,18.67
2022-12-19T02:21:46.619Z,19.53
2022-12-19T02:24:22.475Z,17.85
2022-12-19T02:27:04.066Z,16.92
2022-12-19T02:29:54.767Z,15.00
2022-12-19T02:32:41.303Z,18.83
2022-12-19T02:35:34.165Z,17.80
2022-12-19T02:38:29.001Z,14.75
2022-12-19T02:41:01.613Z,21.88
2022-12-19T02:43:32.199Z,17.40
2022-12-19T02:46:01.458Z,20.83
2022-12-19T02:48:29.213Z,18.37
2022-12-19T02:50:55.637Z,20.73
2022-12-19T02:53:23.989Z,20.75
2022-12-19T02:56:03.968Z,20.15
2022-12-19T02:58:40.267Z,19.42
2022-12-19T03:01:08.005Z,17.60
2022-12-19T03:04:02.431Z,20.15
2022-12-19T03:06:40.600Z,19.23
2022-12-19T03:09:30.180Z,17.23
2022-12-19T03:12:05.220Z,19.60
2022-12-19T03:14:32.939Z,19.77
2022-12-19T03:17:04.595Z,18.45
2022-12-19T03:19:32.102Z,16.75
2022-12-19T03:21:58.913Z,19.95
2022-12-19T03:24:26.077Z,20.05
2022-12-19T03:27:03.192Z,18.93
2022-12-19T03:29:34.380Z,19.10
2022-12-19T03:32:05.448Z,19.75
2022-12-19T03:34:39.186Z,20.17
2022-12-19T03:37:11.312Z,16.30
2022-12-19T03:39:41.001Z,16.70
2022-12-19T03:42:27.085Z,18.52
2022-12-19T03:44:55.567Z,19.00
2022-12-19T03:47:32.900Z,18.67
2022-12-19T03:49:59.546Z,18.75
2022-12-19T03:52:33.920Z,18.23
2022-12-19T03:55:03.289Z,19.20
2022-12-19T03:57:35.973Z,19.25
2022-12-19T04:00:08.006Z,17.73
2022-12-19T04:02:37.569Z,20.83
2022-12-19T04:05:13.376Z,18.43
2022-12-19T04:07:41.055Z,19.60
2022-12-19T04:10:15.569Z,19.42
2022-12-19T04:12:48.803Z,20.02
2022-12-19T04:15:16.326Z,19.30
2022-12-19T04:17:51.728Z,18.17
2022-12-19T04:20:21.080Z,17.88
2022-12-19T04:22:59.671Z,17.05
2022-12-19T04:25:30.551Z,18.30
2022-12-19T04:28:05.298Z,19.23
2022-12-19T04:30:36.789Z,18.63
2022-12-19T04:33:03.661Z,17.25
2022-12-19T04:35:30.185Z,18.70
2022-12-19T04:37:56.542Z,16.85
2022-12-19T04:40:23.032Z,17.10
2022-12-19T04:42:49.415Z,20.00
2022-12-19T04:45:16.678Z,20.88
2022-12-19T04:47:43.348Z,18.95
2022-12-19T04:50:10.204Z,19.40
2022-12-19T04:52:36.760Z,20.40
2022-12-19T04:55:03.340Z,17.83
2022-12-19T04:57:31.167Z,19.00
2022-12-19T04:59:58.143Z,19.50
2022-12-19T05:02:25.614Z,19.02
2022-12-19T05:04:52.187Z,20.65
2022-12-19T05:07:18.571Z,20.23
2022-12-19T05:09:44.974Z,20.00
2022-12-19T05:12:11.419Z,19.08
2022-12-19T05:14:38.173Z,22.17
2022-12-19T05:17:04.705Z,21.13
2022-12-19T05:19:31.303Z,19.43
2022-12-19T05:21:58.112Z,19.88
2022-12-19T05:24:24.615Z,19.48
2022-12-19T05:26:51.003Z,20.30
2022-12-19T05:29:17.616Z,20.27
2022-12-19T05:31:44.085Z,20.20
2022-12-19T05:34:10.579Z,21.63
2022-12-19T05:36:37.079Z,18.98
2022-12-19T05:39:03.540Z,19.83
2022-12-19T05:41:30.029Z,18.90
2022-12-19T05:43:56.683Z,16.03
2022-12-19T05:46:25.074Z,17.88
2022-12-19T05:48:51.748Z,19.42
2022-12-19T05:51:18.564Z,18.67
2022-12-19T05:53:45.032Z,19.00
2022-12-19T05:56:14.756Z,17.40
2022-12-19T05:58:43.376Z,19.45
2022-12-19T06:01:16.854Z,19.10
2022-12-19T06:03:44.116Z,20.45
2022-12-19T06:06:13.690Z,18.13
2022-12-19T06:08:40.464Z,18.63
2022-12-19T06:11:08.576Z,17.60
2022-12-19T06:13:35.951Z,19.23
2022-12-19T06:16:05.548Z,17.77
2022-12-19T06:18:32.346Z,17.35
2022-12-19T06:21:04.711Z,18.13
2022-12-19T06:23:33.016Z,17.30
2022-12-19T06:26:00.738Z,19.98
2022-12-19T06:28:29.526Z,22.17
2022-12-19T06:30:57.291Z,20.48
2022-12-19T06:33:24.077Z,15.80
2022-12-19T06:36:00.626Z,21.13
2022-12-19T06:38:28.931Z,21.45
2022-12-19T06:41:14.526Z,20.27
2022-12-19T06:43:41.066Z,20.23
2022-12-19T06:46:08.067Z,19.20
2022-12-19T06:48:34.589Z,21.35
2022-12-19T06:51:01.318Z,20.38
2022-12-19T06:53:28.143Z,21.33
2022-12-19T06:55:57.347Z,20.02
2022-12-19T06:58:24.496Z,21.67
2022-12-19T07:00:51.943Z,20.65
2022-12-19T07:03:24.245Z,19.80
2022-12-19T07:05:50.807Z,17.75
2022-12-19T07:08:17.427Z,20.33
2022-12-19T07:10:43.905Z,19.37
2022-12-19T07:13:10.417Z,18.70
2022-12-19T07:15:37.733Z,19.20
2022-12-19T07:18:06.478Z,18.85
2022-12-19T07:20:38.710Z,18.77
2022-12-19T07:23:09.728Z,19.17
2022-12-19T07:25:39.050Z,19.05
2022-12-19T07:28:06.971Z,19.20
2022-12-19T07:30:33.435Z,17.17
2022-12-19T07:32:59.901Z,32.95
2022-12-19T07:35:26.449Z,19.07
2022-12-19T07:37:52.805Z,28.05
2022-12-19T07:40:19.486Z,19.52
2022-12-19T07:42:45.962Z,17.15
2022-12-19T07:45:12.654Z,18.77
2022-12-19T07:47:39.148Z,16.90
2022-12-19T07:50:05.896Z,17.40
2022-12-19T07:52:32.407Z,19.00
2022-12-19T07:54:58.782Z,18.35
2022-12-19T07:57:25.191Z,18.25
2022-12-19T07:59:51.643Z,19.07
2022-12-19T08:02:18.312Z,18.17
2022-12-19T08:04:45.036Z,18.65
2022-12-19T08:07:11.498Z,18.98
2022-12-19T08:09:38.218Z,18.70
2022-12-19T08:12:04.715Z,19.80
2022-12-19T08:14:31.162Z,17.42
2022-12-19T08:19:44.080Z,17.55
2022-12-19T08:22:10.584Z,16.08
2022-12-19T08:24:37.462Z,18.63
2022-12-19T08:27:04.064Z,15.98
2022-12-19T08:29:30.525Z,18.23
2022-12-19T08:31:56.902Z,15.65
2022-12-19T08:34:23.376Z,19.85
2022-12-19T08:36:50.087Z,17.63
2022-12-19T08:39:16.634Z,17.48
2022-12-19T08:41:43.823Z,19.17
2022-12-19T08:44:11.418Z,20.42
2022-12-19T08:46:37.903Z,22.40
2022-12-19T08:49:04.437Z,18.23
2022-12-19T08:51:31.035Z,16.50
2022-12-19T08:53:58.128Z,19.33
2022-12-19T08:56:24.620Z,18.55
2022-12-19T08:58:52.111Z,19.58
2022-12-19T09:01:20.793Z,14.63
2022-12-19T09:04:07.273Z,20.73
2022-12-19T09:06:34.766Z,20.17
2022-12-19T09:09:01.306Z,19.65
2022-12-19T09:11:27.830Z,19.67
2022-12-19T09:13:57.408Z,20.80
2022-12-19T09:16:26.458Z,19.75
2022-12-19T09:18:56.928Z,20.00
2022-12-19T09:21:25.140Z,19.50
2022-12-19T09:24:00.561Z,19.48
2022-12-19T09:26:32.968Z,20.13
2022-12-19T09:29:00.859Z,18.65
2022-12-19T09:31:29.172Z,17.90
2022-12-19T09:33:55.617Z,18.08
2022-12-19T09:36:24.544Z,17.67
2022-12-19T09:38:54.432Z,18.27
2022-12-19T09:41:54.545Z,21.80
2022-12-19T09:44:45.605Z,15.18
2022-12-19T09:47:16.047Z,18.95
2022-12-19T09:49:45.196Z,21.45
2022-12-19T09:52:20.640Z,22.93
2022-12-19T09:54:56.187Z,20.25
2022-12-19T09:57:40.881Z,21.20
2022-12-19T10:00:18.343Z,20.90
2022-12-19T10:03:03.145Z,20.15
2022-12-19T10:06:37.189Z,21.03
2022-12-19T10:08:32.227Z,19.80
2022-12-19T10:12:47.857Z,21.17
2022-12-19T10:14:11.704Z,19.73
2022-12-19T10:17:24.645Z,19.73
2022-12-19T10:20:16.231Z,21.33
2022-12-19T10:23:07.043Z,21.15
2022-12-19T10:26:06.179Z,20.70
2022-12-19T10:28:35.231Z,20.33
2022-12-19T10:31:21.611Z,21.30
2022-12-19T10:34:22.359Z,19.60
2022-12-19T10:37:26.944Z,19.75
2022-12-19T10:39:47.295Z,22.42
2022-12-19T10:42:34.335Z,20.80
2022-12-19T10:45:06.259Z,22.90
2022-12-19T10:47:33.084Z,22.33
2022-12-19T10:50:04.005Z,22.23
2022-12-19T10:53:04.511Z,21.58
2022-12-19T10:55:51.605Z,19.60
2022-12-19T10:58:23.009Z,20.70
2022-12-19T11:00:58.244Z,20.73
2022-12-19T11:03:25.045Z,18.27
2022-12-19T11:05:58.835Z,35.67
2022-12-19T11:08:26.989Z,41.53
2022-12-19T11:13:07.745Z,23.75
2022-12-19T11:19:33.470Z,21.53
2022-12-19T11:20:44.503Z,21.48
2022-12-19T11:29:18.794Z,30.92
2022-12-19T11:29:30.653Z,20.58
2022-12-19T11:30:07.051Z,20.10
2022-12-19T11:30:36.953Z,21.55
2022-12-19T11:34:07.128Z,21.13
2022-12-19T11:36:43.460Z,19.55
2022-12-19T11:39:22.894Z,25.88
2022-12-19T11:42:29.161Z,21.37
2022-12-19T11:45:02.841Z,20.08
2022-12-19T11:47:48.495Z,19.83
2022-12-19T11:50:19.416Z,20.48
2022-12-19T11:53:19.941Z,20.63
2022-12-19T11:56:08.067Z,20.90
2022-12-19T11:58:49.430Z,21.17
2022-12-19T12:01:34.631Z,22.23
2022-12-19T12:04:15.942Z,20.70
2022-12-19T12:06:53.266Z,20.33
2022-12-19T12:13:17.277Z,20.03
2022-12-19T12:19:55.071Z,20.23
2022-12-19T12:25:01.431Z,20.58
2022-12-19T12:29:01.537Z,19.73
2022-12-19T12:31:14.804Z,17.70
2022-12-19T12:31:39.472Z,18.15
2022-12-19T12:31:43.273Z,20.17
2022-12-19T12:35:51.823Z,20.88
2022-12-19T12:40:53.206Z,17.23
2022-12-19T12:43:40.619Z,18.23
2022-12-19T12:46:14.782Z,18.13
2022-12-19T12:48:54.247Z,19.48
2022-12-19T12:51:22.239Z,19.48
2022-12-19T12:53:49.775Z,18.10
2022-12-19T12:56:18.459Z,19.25
2022-12-19T12:58:54.100Z,18.63
2022-12-19T13:01:29.961Z,16.48
2022-12-19T13:04:02.243Z,17.30
2022-12-19T13:06:40.733Z,16.37
2022-12-19T13:09:09.875Z,15.23
2022-12-19T13:11:56.421Z,15.90
2022-12-19T13:14:34.859Z,15.10
2022-12-19T13:17:06.131Z,17.33
2022-12-19T13:19:51.838Z,17.80
2022-12-19T13:22:21.330Z,15.60
2022-12-19T13:24:51.113Z,18.75
2022-12-19T13:27:20.723Z,16.08
2022-12-19T13:30:07.936Z,18.90
2022-12-19T13:32:40.095Z,15.67
2022-12-19T13:36:31.057Z,18.85
2022-12-19T13:39:58.210Z,18.67
2022-12-19T13:41:49.494Z,17.35
2022-12-19T13:44:21.879Z,18.65
2022-12-19T13:46:49.624Z,17.50
2022-12-19T13:49:31.844Z,18.90
2022-12-19T13:52:02.868Z,19.10
2022-12-19T13:54:34.592Z,18.23
2022-12-19T13:57:06.602Z,17.48
2022-12-19T13:59:38.557Z,17.83
2022-12-19T14:02:17.976Z,18.10
2022-12-19T14:04:45.519Z,17.60
2022-12-19T14:07:36.476Z,17.08
2022-12-19T14:11:39.332Z,17.20
2022-12-19T14:13:49.227Z,32.47
2022-12-19T14:16:18.297Z,23.77
2022-12-19T14:18:56.085Z,19.95
2022-12-19T14:22:05.173Z,24.95
2022-12-19T14:24:22.245Z,25.02
2022-12-19T14:28:23.894Z,21.60
2022-12-19T14:30:27.900Z,20.70
2022-12-19T14:33:46.388Z,20.67
2022-12-19T14:36:10.439Z,18.83
2022-12-19T14:39:23.785Z,20.83
2022-12-19T14:41:46.147Z,20.83
2022-12-19T14:52:50.879Z,19.85
2022-12-19T14:54:11.033Z,21.60
2022-12-19T14:54:22.848Z,21.48
2022-12-19T14:54:34.136Z,22.05
2022-12-19T14:56:47.483Z,19.80
2022-12-19T14:59:00.380Z,22.23
2022-12-19T15:01:30.684Z,24.95
2022-12-19T15:04:48.410Z,24.52
2022-12-19T15:07:07.491Z,25.15
2022-12-19T15:11:09.292Z,23.73
2022-12-19T15:14:47.194Z,26.00
2022-12-19T15:16:04.604Z,23.40
2022-12-19T15:18:34.222Z,23.90
2022-12-19T15:21:08.109Z,26.73
2022-12-19T15:23:34.555Z,23.97
2022-12-19T15:26:06.045Z,22.40
2022-12-19T15:28:40.250Z,25.63
2022-12-19T15:31:27.927Z,26.35
2022-12-19T15:36:41.096Z,30.87
2022-12-19T15:39:07.501Z,25.42
2022-12-19T15:41:34.315Z,25.08
2022-12-19T15:44:09.976Z,27.23
2022-12-19T15:46:38.909Z,27.55
2022-12-19T15:49:17.438Z,27.97
2022-12-19T15:51:44.280Z,25.98
2022-12-19T15:54:46.542Z,24.65
2022-12-19T15:56:57.405Z,23.42
2022-12-19T15:59:29.866Z,24.33
2022-12-19T16:02:01.974Z,24.00
2022-12-19T16:04:28.812Z,24.77
2022-12-19T16:06:55.426Z,25.52
2022-12-19T16:09:27.787Z,27.33
2022-12-19T16:11:54.862Z,33.00
2022-12-19T16:14:22.481Z,26.47
2022-12-19T16:16:57.799Z,25.50
2022-12-19T16:19:25.814Z,24.13
2022-12-19T16:21:52.864Z,23.15
2022-12-19T16:24:20.098Z,25.83
2022-12-19T16:26:57.747Z,25.43
2022-12-19T16:29:27.925Z,26.27
2022-12-19T16:31:55.364Z,33.10
2022-12-19T16:34:24.378Z,24.00
2022-12-19T16:36:51.245Z,23.40
2022-12-19T16:39:18.201Z,23.53
2022-12-19T16:41:45.568Z,38.22
2022-12-19T16:44:20.367Z,26.90
2022-12-19T16:46:51.128Z,23.85
2022-12-19T16:49:20.582Z,22.27
2022-12-19T16:51:47.728Z,31.17
2022-12-19T16:54:15.517Z,24.83
2022-12-19T16:56:48.813Z,25.65
2022-12-19T16:59:30.043Z,23.65
2022-12-19T17:01:57.661Z,22.60
2022-12-19T17:04:25.652Z,29.17
2022-12-19T17:06:53.627Z,24.50
2022-12-19T17:09:23.112Z,28.05
2022-12-19T17:12:01.255Z,21.35
2022-12-19T17:14:31.949Z,20.75
2022-12-19T17:16:59.343Z,27.00
2022-12-19T17:19:38.433Z,24.20
2022-12-19T17:22:15.882Z,27.25
2022-12-19T17:24:45.037Z,28.67
2022-12-19T17:27:11.476Z,39.70
2022-12-19T17:29:37.997Z,26.83
2022-12-19T17:32:06.847Z,25.60
2022-12-19T17:34:33.979Z,24.42
2022-12-19T17:37:02.698Z,24.63
2022-12-19T17:39:32.009Z,23.40
2022-12-19T17:42:21.732Z,22.67
2022-12-19T17:44:48.167Z,21.10
2022-12-19T17:47:15.843Z,21.65
2022-12-19T17:49:42.843Z,19.50
2022-12-19T17:52:15.609Z,27.05
2022-12-19T17:54:42.488Z,31.47
2022-12-19T17:57:15.823Z,26.55
2022-12-19T17:59:42.401Z,22.40
2022-12-19T18:07:56.474Z,23.73
2022-12-19T18:10:26.466Z,27.48
2022-12-19T18:12:53.752Z,24.10
2022-12-19T18:15:22.240Z,23.27
2022-12-19T18:17:50.316Z,16.88
2022-12-19T18:20:32.257Z,16.60
2022-12-19T18:23:00.046Z,15.80
2022-12-19T18:25:29.160Z,12.25
2022-12-19T18:27:55.638Z,13.05
2022-12-19T18:30:23.806Z,12.32
2022-12-19T18:32:55.289Z,12.40
2022-12-19T18:35:40.464Z,10.43
2022-12-19T18:38:12.438Z,10.82
2022-12-19T18:40:39.249Z,11.35
2022-12-19T18:43:06.002Z,11.15
2022-12-19T18:45:38.783Z,9.37
2022-12-19T18:48:15.540Z,10.45
2022-12-19T18:50:42.045Z,11.77
2022-12-19T18:53:12.281Z,11.32
2022-12-19T18:55:39.024Z,11.73
2022-12-19T18:58:05.644Z,12.00
2022-12-19T19:00:32.511Z,9.27
2022-12-19T19:03:02.459Z,13.15
2022-12-19T19:05:32.097Z,13.38
2022-12-19T19:08:12.054Z,13.40
2022-12-19T19:10:38.787Z,13.77
2022-12-19T19:13:10.016Z,14.43
2022-12-19T19:15:46.646Z,13.65
2022-12-19T19:18:13.753Z,14.32
2022-12-19T19:20:41.816Z,14.73
2022-12-19T19:23:11.248Z,15.17
2022-12-19T19:25:37.959Z,15.23
2022-12-19T19:28:06.448Z,14.38
2022-12-19T19:30:35.908Z,14.05
2022-12-19T19:33:10.904Z,12.95
2022-12-19T19:35:38.092Z,13.33
2022-12-19T19:38:07.032Z,14.20
2022-12-19T19:40:35.239Z,13.75
2022-12-19T19:43:01.914Z,13.93
2022-12-19T19:45:28.435Z,12.68
2022-12-19T19:47:55.463Z,13.93
2022-12-19T19:50:22.458Z,12.82
2022-12-19T19:52:48.917Z,11.88
2022-12-19T19:55:16.015Z,13.35
2022-12-19T19:57:42.508Z,13.05
2022-12-19T20:00:09.678Z,14.23
2022-12-19T20:02:37.231Z,11.80
2022-12-19T20:05:04.137Z,12.75
2022-12-19T20:07:30.783Z,13.20
2022-12-19T20:09:57.269Z,12.07
2022-12-19T20:12:24.261Z,12.63
2022-12-19T20:14:50.796Z,11.50
2022-12-19T20:17:17.458Z,12.70
2022-12-19T20:19:43.945Z,12.65
2022-12-19T20:22:10.467Z,12.23
2022-12-19T20:24:36.887Z,11.60
2022-12-19T20:27:03.432Z,10.20
2022-12-19T20:29:30.510Z,11.85
2022-12-19T20:31:57.065Z,12.13
2022-12-19T20:34:23.905Z,11.95
2022-12-19T20:36:50.389Z,12.70
2022-12-19T20:39:21.929Z,12.70
2022-12-19T20:41:52.806Z,12.45
2022-12-19T20:44:24.125Z,12.45
2022-12-19T20:46:51.059Z,12.48
2022-12-19T20:49:18.595Z,12.00
2022-12-19T20:51:47.549Z,12.57
2022-12-19T20:54:15.663Z,13.18
2022-12-19T20:56:42.129Z,12.82
2022-12-19T20:59:09.596Z,12.55
2022-12-19T21:01:36.251Z,12.90
2022-12-19T21:04:08.682Z,11.32
2022-12-19T21:06:37.809Z,12.88
2022-12-19T21:09:06.038Z,11.82
2022-12-19T21:11:33.571Z,13.32
2022-12-19T21:14:00.109Z,12.67
2022-12-19T21:16:26.603Z,12.75
2022-12-19T21:18:53.398Z,12.93
2022-12-19T21:21:24.903Z,12.65
2022-12-19T21:23:52.648Z,11.75
2022-12-19T21:26:19.881Z,11.10
2022-12-19T21:28:46.380Z,11.35
2022-12-19T21:31:17.096Z,11.23
2022-12-19T21:33:44.321Z,12.95
2022-12-19T21:36:17.683Z,11.38
2022-12-19T21:38:45.275Z,9.43
2022-12-19T21:41:12.897Z,11.18
2022-12-19T21:43:39.314Z,9.20
2022-12-19T21:46:10.554Z,12.02
2022-12-19T21:48:50.603Z,11.65
2022-12-19T21:51:19.625Z,11.10
2022-12-19T21:53:46.506Z,11.73
2022-12-19T21:56:25.034Z,10.57
2022-12-19T21:58:57.157Z,9.95
2022-12-19T22:01:24.221Z,11.10
2022-12-19T22:03:51.547Z,10.90
2022-12-19T22:06:27.391Z,10.40
2022-12-19T22:08:55.118Z,11.23
2022-12-19T22:11:21.997Z,11.73
2022-12-19T22:13:49.478Z,10.88
2022-12-19T22:16:16.581Z,10.07
2022-12-19T22:18:43.864Z,10.23
2022-12-19T22:21:15.056Z,11.27
2022-12-19T22:23:42.297Z,10.32
2022-12-19T22:26:21.156Z,10.27
2022-12-19T22:28:50.037Z,8.77
2022-12-19T22:31:27.967Z,9.95
2022-12-19T22:33:57.400Z,8.77
2022-12-19T22:36:28.404Z,10.45
2022-12-19T22:38:56.583Z,11.00
2022-12-19T22:41:23.166Z,12.47
2022-12-19T22:43:50.248Z,11.65
2022-12-19T22:46:24.185Z,12.15
2022-12-19T22:48:55.153Z,12.23
2022-12-19T22:51:21.595Z,12.48
2022-12-19T22:53:48.210Z,11.97
2022-12-19T22:56:26.816Z,12.13
2022-12-19T22:58:55.315Z,13.18
2022-12-19T23:01:25.032Z,12.43
2022-12-19T23:03:54.057Z,11.63
2022-12-19T23:06:22.020Z,12.53
2022-12-19T23:08:49.026Z,12.00
2022-12-19T23:11:19.021Z,13.60
2022-12-19T23:13:47.219Z,15.45
2022-12-19T23:16:13.761Z,15.57
2022-12-19T23:18:41.234Z,13.63
2022-12-19T23:21:16.387Z,14.82
2022-12-19T23:23:44.912Z,14.35
2022-12-19T23:26:22.604Z,14.55
2022-12-19T23:29:00.961Z,13.60
2022-12-19T23:31:28.416Z,14.37
2022-12-19T23:33:55.801Z,14.45
2022-12-19T23:36:45.138Z,13.68
2022-12-19T23:39:10.862Z,13.85
2022-12-19T23:41:38.007Z,13.77
2022-12-19T23:44:04.719Z,13.80
2022-12-19T23:46:31.276Z,14.73
2022-12-19T23:48:57.903Z,14.65
2022-12-19T23:51:26.821Z,14.00
2022-12-19T23:53:55.058Z,13.85
2022-12-19T23:56:29.184Z,15.60
2022-12-19T23:58:56.526Z,15.27
